sensor_id;sensor_type;location;lat;lon;timestamp;P1;durP1;ratioP1;P2;durP2;ratioP2
35074;SDS011;21260;34.984;32.490;2023-08-06T00:01:51;4.40;;;2.35;;
35074;SDS011;21260;34.984;32.490;2023-08-06T00:04:17;3.85;;;2.30;;
35074;SDS011;21260;34.984;32.490;2023-08-06T00:06:44;4.00;;;2.50;;
35074;SDS011;21260;34.984;32.490;2023-08-06T00:09:10;6.82;;;2.67;;
35074;SDS011;21260;34.984;32.490;2023-08-06T00:11:36;4.32;;;2.25;;
35074;SDS011;21260;34.984;32.490;2023-08-06T00:14:03;4.18;;;2.72;;
35074;SDS011;21260;34.984;32.490;2023-08-06T00:16:29;3.45;;;2.33;;
35074;SDS011;21260;34.984;32.490;2023-08-06T00:18:55;3.22;;;2.30;;
35074;SDS011;21260;34.984;32.490;2023-08-06T00:21:22;3.53;;;2.20;;
35074;SDS011;21260;34.984;32.490;2023-08-06T00:23:48;3.60;;;2.47;;
35074;SDS011;21260;34.984;32.490;2023-08-06T00:26:14;3.80;;;2.35;;
35074;SDS011;21260;34.984;32.490;2023-08-06T00:28:40;4.47;;;2.47;;
35074;SDS011;21260;34.984;32.490;2023-08-06T00:31:06;2.97;;;2.10;;
35074;SDS011;21260;34.984;32.490;2023-08-06T00:33:33;3.72;;;2.10;;
35074;SDS011;21260;34.984;32.490;2023-08-06T00:35:59;3.00;;;2.10;;
35074;SDS011;21260;34.984;32.490;2023-08-06T00:38:25;3.67;;;2.20;;
35074;SDS011;21260;34.984;32.490;2023-08-06T00:40:53;4.60;;;2.38;;
35074;SDS011;21260;34.984;32.490;2023-08-06T00:43:19;3.03;;;2.30;;
35074;SDS011;21260;34.984;32.490;2023-08-06T00:45:45;3.30;;;2.25;;
35074;SDS011;21260;34.984;32.490;2023-08-06T00:48:12;3.27;;;2.07;;
35074;SDS011;21260;34.984;32.490;2023-08-06T00:50:39;2.87;;;2.40;;
35074;SDS011;21260;34.984;32.490;2023-08-06T00:53:05;4.60;;;2.35;;
35074;SDS011;21260;34.984;32.490;2023-08-06T00:55:32;3.65;;;2.15;;
35074;SDS011;21260;34.984;32.490;2023-08-06T00:57:59;3.50;;;2.20;;
35074;SDS011;21260;34.984;32.490;2023-08-06T01:00:27;4.03;;;2.20;;
35074;SDS011;21260;34.984;32.490;2023-08-06T01:02:54;3.70;;;2.30;;
35074;SDS011;21260;34.984;32.490;2023-08-06T01:05:20;3.53;;;2.20;;
35074;SDS011;21260;34.984;32.490;2023-08-06T01:07:51;5.28;;;2.08;;
35074;SDS011;21260;34.984;32.490;2023-08-06T01:13:24;3.90;;;2.35;;
35074;SDS011;21260;34.984;32.490;2023-08-06T01:15:58;3.92;;;2.22;;
35074;SDS011;21260;34.984;32.490;2023-08-06T01:18:25;4.43;;;2.30;;
35074;SDS011;21260;34.984;32.490;2023-08-06T01:20:52;3.28;;;2.40;;
35074;SDS011;21260;34.984;32.490;2023-08-06T01:23:18;3.40;;;2.33;;
35074;SDS011;21260;34.984;32.490;2023-08-06T01:25:49;4.90;;;2.50;;
35074;SDS011;21260;34.984;32.490;2023-08-06T01:28:33;3.27;;;2.37;;
35074;SDS011;21260;34.984;32.490;2023-08-06T01:31:27;4.57;;;2.50;;
35074;SDS011;21260;34.984;32.490;2023-08-06T01:34:03;5.72;;;2.60;;
35074;SDS011;21260;34.984;32.490;2023-08-06T01:36:35;3.20;;;2.40;;
35074;SDS011;21260;34.984;32.490;2023-08-06T01:39:03;6.68;;;2.85;;
35074;SDS011;21260;34.984;32.490;2023-08-06T01:41:30;4.47;;;2.60;;
35074;SDS011;21260;34.984;32.490;2023-08-06T01:43:56;5.10;;;2.83;;
35074;SDS011;21260;34.984;32.490;2023-08-06T01:46:23;6.80;;;2.90;;
35074;SDS011;21260;34.984;32.490;2023-08-06T01:48:49;5.67;;;2.80;;
35074;SDS011;21260;34.984;32.490;2023-08-06T01:51:15;5.25;;;2.70;;
35074;SDS011;21260;34.984;32.490;2023-08-06T01:53:41;5.57;;;2.90;;
35074;SDS011;21260;34.984;32.490;2023-08-06T01:56:07;5.47;;;3.03;;
35074;SDS011;21260;34.984;32.490;2023-08-06T01:58:34;6.70;;;2.90;;
35074;SDS011;21260;34.984;32.490;2023-08-06T02:01:01;5.80;;;2.60;;
35074;SDS011;21260;34.984;32.490;2023-08-06T02:03:27;6.20;;;2.80;;
35074;SDS011;21260;34.984;32.490;2023-08-06T02:05:54;4.45;;;2.75;;
35074;SDS011;21260;34.984;32.490;2023-08-06T02:08:21;4.30;;;2.80;;
35074;SDS011;21260;34.984;32.490;2023-08-06T02:10:47;6.22;;;2.90;;
35074;SDS011;21260;34.984;32.490;2023-08-06T02:13:14;5.22;;;2.90;;
35074;SDS011;21260;34.984;32.490;2023-08-06T02:15:43;4.40;;;2.45;;
35074;SDS011;21260;34.984;32.490;2023-08-06T02:18:13;5.10;;;2.63;;
35074;SDS011;21260;34.984;32.490;2023-08-06T02:20:42;5.80;;;2.60;;
35074;SDS011;21260;34.984;32.490;2023-08-06T02:23:08;5.80;;;2.63;;
35074;SDS011;21260;34.984;32.490;2023-08-06T02:25:35;5.43;;;2.85;;
35074;SDS011;21260;34.984;32.490;2023-08-06T02:28:01;6.32;;;2.90;;
35074;SDS011;21260;34.984;32.490;2023-08-06T02:30:28;4.38;;;2.53;;
35074;SDS011;21260;34.984;32.490;2023-08-06T02:32:55;5.93;;;2.50;;
35074;SDS011;21260;34.984;32.490;2023-08-06T02:35:22;6.43;;;2.65;;
35074;SDS011;21260;34.984;32.490;2023-08-06T02:37:48;3.72;;;2.70;;
35074;SDS011;21260;34.984;32.490;2023-08-06T02:40:17;4.03;;;2.70;;
35074;SDS011;21260;34.984;32.490;2023-08-06T02:42:43;4.40;;;2.55;;
35074;SDS011;21260;34.984;32.490;2023-08-06T02:45:09;4.10;;;2.37;;
35074;SDS011;21260;34.984;32.490;2023-08-06T02:47:35;5.97;;;2.60;;
35074;SDS011;21260;34.984;32.490;2023-08-06T02:50:02;5.45;;;2.60;;
35074;SDS011;21260;34.984;32.490;2023-08-06T02:52:29;5.03;;;2.60;;
35074;SDS011;21260;34.984;32.490;2023-08-06T02:54:55;4.55;;;2.67;;
35074;SDS011;21260;34.984;32.490;2023-08-06T02:57:21;7.75;;;2.33;;
35074;SDS011;21260;34.984;32.490;2023-08-06T02:59:47;6.00;;;2.53;;
35074;SDS011;21260;34.984;32.490;2023-08-06T03:02:13;6.03;;;2.70;;
35074;SDS011;21260;34.984;32.490;2023-08-06T03:04:40;3.60;;;2.45;;
35074;SDS011;21260;34.984;32.490;2023-08-06T03:07:06;4.22;;;2.60;;
35074;SDS011;21260;34.984;32.490;2023-08-06T03:09:33;4.25;;;2.42;;
35074;SDS011;21260;34.984;32.490;2023-08-06T03:11:59;4.93;;;2.63;;
35074;SDS011;21260;34.984;32.490;2023-08-06T03:14:25;4.53;;;2.60;;
35074;SDS011;21260;34.984;32.490;2023-08-06T03:16:51;3.20;;;2.40;;
35074;SDS011;21260;34.984;32.490;2023-08-06T03:19:17;4.93;;;2.33;;
35074;SDS011;21260;34.984;32.490;2023-08-06T03:21:44;3.83;;;2.50;;
35074;SDS011;21260;34.984;32.490;2023-08-06T03:24:10;5.60;;;2.42;;
35074;SDS011;21260;34.984;32.490;2023-08-06T03:26:36;4.50;;;2.33;;
35074;SDS011;21260;34.984;32.490;2023-08-06T03:29:02;4.22;;;2.38;;
35074;SDS011;21260;34.984;32.490;2023-08-06T03:31:28;6.00;;;2.50;;
35074;SDS011;21260;34.984;32.490;2023-08-06T03:33:55;4.15;;;2.25;;
35074;SDS011;21260;34.984;32.490;2023-08-06T03:36:24;5.50;;;2.45;;
35074;SDS011;21260;34.984;32.490;2023-08-06T03:38:50;4.43;;;2.25;;
35074;SDS011;21260;34.984;32.490;2023-08-06T03:41:16;2.93;;;2.10;;
35074;SDS011;21260;34.984;32.490;2023-08-06T03:43:42;4.20;;;2.35;;
35074;SDS011;21260;34.984;32.490;2023-08-06T03:46:08;3.92;;;2.35;;
35074;SDS011;21260;34.984;32.490;2023-08-06T03:48:34;3.10;;;2.20;;
35074;SDS011;21260;34.984;32.490;2023-08-06T03:51:01;5.72;;;2.47;;
35074;SDS011;21260;34.984;32.490;2023-08-06T03:53:27;4.10;;;2.08;;
35074;SDS011;21260;34.984;32.490;2023-08-06T03:55:53;7.82;;;2.30;;
35074;SDS011;21260;34.984;32.490;2023-08-06T03:58:20;5.43;;;2.30;;
35074;SDS011;21260;34.984;32.490;2023-08-06T04:00:47;3.40;;;2.15;;
35074;SDS011;21260;34.984;32.490;2023-08-06T04:03:13;3.15;;;2.20;;
35074;SDS011;21260;34.984;32.490;2023-08-06T04:05:39;3.90;;;2.47;;
35074;SDS011;21260;34.984;32.490;2023-08-06T04:08:05;3.72;;;2.13;;
35074;SDS011;21260;34.984;32.490;2023-08-06T04:10:31;4.55;;;2.30;;
35074;SDS011;21260;34.984;32.490;2023-08-06T04:12:57;3.13;;;2.15;;
35074;SDS011;21260;34.984;32.490;2023-08-06T04:15:24;3.35;;;2.10;;
35074;SDS011;21260;34.984;32.490;2023-08-06T04:17:50;3.42;;;2.10;;
35074;SDS011;21260;34.984;32.490;2023-08-06T04:20:16;4.88;;;2.33;;
35074;SDS011;21260;34.984;32.490;2023-08-06T04:22:43;4.55;;;2.35;;
35074;SDS011;21260;34.984;32.490;2023-08-06T04:25:09;2.97;;;2.20;;
35074;SDS011;21260;34.984;32.490;2023-08-06T04:27:35;4.18;;;2.60;;
35074;SDS011;21260;34.984;32.490;2023-08-06T04:30:06;4.07;;;2.30;;
35074;SDS011;21260;34.984;32.490;2023-08-06T04:32:33;3.28;;;2.00;;
35074;SDS011;21260;34.984;32.490;2023-08-06T04:34:59;4.85;;;2.40;;
35074;SDS011;21260;34.984;32.490;2023-08-06T04:37:25;3.45;;;2.35;;
35074;SDS011;21260;34.984;32.490;2023-08-06T04:39:52;3.40;;;2.25;;
35074;SDS011;21260;34.984;32.490;2023-08-06T04:42:18;4.68;;;2.28;;
35074;SDS011;21260;34.984;32.490;2023-08-06T04:44:44;4.80;;;2.33;;
35074;SDS011;21260;34.984;32.490;2023-08-06T04:47:10;5.07;;;2.20;;
35074;SDS011;21260;34.984;32.490;2023-08-06T04:49:36;4.45;;;2.22;;
35074;SDS011;21260;34.984;32.490;2023-08-06T04:52:03;3.80;;;2.45;;
35074;SDS011;21260;34.984;32.490;2023-08-06T04:54:30;4.57;;;2.45;;
35074;SDS011;21260;34.984;32.490;2023-08-06T04:56:56;2.55;;;2.13;;
35074;SDS011;21260;34.984;32.490;2023-08-06T04:59:22;3.63;;;2.28;;
35074;SDS011;21260;34.984;32.490;2023-08-06T05:01:48;3.80;;;2.17;;
35074;SDS011;21260;34.984;32.490;2023-08-06T05:04:15;3.30;;;2.10;;
35074;SDS011;21260;34.984;32.490;2023-08-06T05:06:41;3.10;;;2.20;;
35074;SDS011;21260;34.984;32.490;2023-08-06T05:09:07;4.57;;;2.33;;
35074;SDS011;21260;34.984;32.490;2023-08-06T05:11:33;3.00;;;2.20;;
35074;SDS011;21260;34.984;32.490;2023-08-06T05:13:59;4.40;;;2.20;;
35074;SDS011;21260;34.984;32.490;2023-08-06T05:16:25;3.35;;;2.20;;
35074;SDS011;21260;34.984;32.490;2023-08-06T05:18:52;5.15;;;2.17;;
35074;SDS011;21260;34.984;32.490;2023-08-06T05:21:18;3.20;;;2.22;;
35074;SDS011;21260;34.984;32.490;2023-08-06T05:23:44;3.47;;;2.20;;
35074;SDS011;21260;34.984;32.490;2023-08-06T05:26:10;4.32;;;2.35;;
35074;SDS011;21260;34.984;32.490;2023-08-06T05:28:37;2.80;;;2.10;;
35074;SDS011;21260;34.984;32.490;2023-08-06T05:31:06;4.03;;;2.35;;
35074;SDS011;21260;34.984;32.490;2023-08-06T05:33:32;3.25;;;2.28;;
35074;SDS011;21260;34.984;32.490;2023-08-06T05:35:59;2.58;;;2.20;;
35074;SDS011;21260;34.984;32.490;2023-08-06T05:38:25;3.20;;;2.20;;
35074;SDS011;21260;34.984;32.490;2023-08-06T05:40:51;4.20;;;2.30;;
35074;SDS011;21260;34.984;32.490;2023-08-06T05:43:18;4.55;;;2.30;;
35074;SDS011;21260;34.984;32.490;2023-08-06T05:45:44;3.10;;;2.35;;
35074;SDS011;21260;34.984;32.490;2023-08-06T05:48:14;3.40;;;2.23;;
35074;SDS011;21260;34.984;32.490;2023-08-06T05:50:40;2.70;;;2.22;;
35074;SDS011;21260;34.984;32.490;2023-08-06T05:53:07;4.28;;;2.45;;
35074;SDS011;21260;34.984;32.490;2023-08-06T05:55:33;4.70;;;2.45;;
35074;SDS011;21260;34.984;32.490;2023-08-06T05:58:00;3.17;;;2.10;;
35074;SDS011;21260;34.984;32.490;2023-08-06T06:00:27;3.60;;;2.40;;
35074;SDS011;21260;34.984;32.490;2023-08-06T06:02:53;3.83;;;2.20;;
35074;SDS011;21260;34.984;32.490;2023-08-06T06:05:19;4.05;;;2.35;;
35074;SDS011;21260;34.984;32.490;2023-08-06T06:07:45;3.25;;;2.20;;
35074;SDS011;21260;34.984;32.490;2023-08-06T06:10:11;4.00;;;2.40;;
35074;SDS011;21260;34.984;32.490;2023-08-06T06:12:38;5.57;;;2.50;;
35074;SDS011;21260;34.984;32.490;2023-08-06T06:15:06;3.22;;;2.20;;
35074;SDS011;21260;34.984;32.490;2023-08-06T06:17:32;3.90;;;2.57;;
35074;SDS011;21260;34.984;32.490;2023-08-06T06:19:59;3.15;;;2.17;;
35074;SDS011;21260;34.984;32.490;2023-08-06T06:22:25;3.92;;;2.58;;
35074;SDS011;21260;34.984;32.490;2023-08-06T06:24:51;4.15;;;2.53;;
35074;SDS011;21260;34.984;32.490;2023-08-06T06:27:17;4.95;;;2.42;;
35074;SDS011;21260;34.984;32.490;2023-08-06T06:29:44;3.85;;;2.38;;
35074;SDS011;21260;34.984;32.490;2023-08-06T06:32:10;4.45;;;2.30;;
35074;SDS011;21260;34.984;32.490;2023-08-06T06:34:36;3.65;;;2.40;;
35074;SDS011;21260;34.984;32.490;2023-08-06T06:37:02;3.55;;;2.35;;
35074;SDS011;21260;34.984;32.490;2023-08-06T06:39:29;3.47;;;2.20;;
35074;SDS011;21260;34.984;32.490;2023-08-06T06:41:55;2.92;;;2.30;;
35074;SDS011;21260;34.984;32.490;2023-08-06T06:44:22;4.93;;;2.30;;
35074;SDS011;21260;34.984;32.490;2023-08-06T06:46:48;3.65;;;2.20;;
35074;SDS011;21260;34.984;32.490;2023-08-06T06:49:14;3.85;;;2.35;;
35074;SDS011;21260;34.984;32.490;2023-08-06T06:51:40;2.55;;;2.13;;
35074;SDS011;21260;34.984;32.490;2023-08-06T06:54:06;3.92;;;2.50;;
35074;SDS011;21260;34.984;32.490;2023-08-06T06:56:33;6.47;;;2.38;;
35074;SDS011;21260;34.984;32.490;2023-08-06T06:58:59;3.63;;;2.30;;
35074;SDS011;21260;34.984;32.490;2023-08-06T07:01:25;4.57;;;2.38;;
35074;SDS011;21260;34.984;32.490;2023-08-06T07:03:51;4.45;;;2.30;;
35074;SDS011;21260;34.984;32.490;2023-08-06T07:06:18;5.60;;;2.40;;
35074;SDS011;21260;34.984;32.490;2023-08-06T07:08:44;3.40;;;2.10;;
35074;SDS011;21260;34.984;32.490;2023-08-06T07:11:11;2.53;;;2.00;;
35074;SDS011;21260;34.984;32.490;2023-08-06T07:13:37;4.22;;;2.13;;
35074;SDS011;21260;34.984;32.490;2023-08-06T07:16:03;3.88;;;2.20;;
35074;SDS011;21260;34.984;32.490;2023-08-06T07:18:29;2.80;;;2.10;;
35074;SDS011;21260;34.984;32.490;2023-08-06T07:20:56;3.97;;;2.20;;
35074;SDS011;21260;34.984;32.490;2023-08-06T07:23:23;2.97;;;2.10;;
35074;SDS011;21260;34.984;32.490;2023-08-06T07:25:51;4.18;;;2.30;;
35074;SDS011;21260;34.984;32.490;2023-08-06T07:28:17;5.75;;;2.38;;
35074;SDS011;21260;34.984;32.490;2023-08-06T07:30:44;3.53;;;1.98;;
35074;SDS011;21260;34.984;32.490;2023-08-06T07:33:11;5.40;;;2.35;;
35074;SDS011;21260;34.984;32.490;2023-08-06T07:35:38;4.07;;;2.38;;
35074;SDS011;21260;34.984;32.490;2023-08-06T07:38:04;4.95;;;2.30;;
35074;SDS011;21260;34.984;32.490;2023-08-06T07:40:31;4.35;;;2.33;;
35074;SDS011;21260;34.984;32.490;2023-08-06T07:42:57;5.35;;;2.38;;
35074;SDS011;21260;34.984;32.490;2023-08-06T07:45:23;4.15;;;2.20;;
35074;SDS011;21260;34.984;32.490;2023-08-06T07:47:52;3.05;;;2.30;;
35074;SDS011;21260;34.984;32.490;2023-08-06T07:50:18;3.17;;;2.25;;
35074;SDS011;21260;34.984;32.490;2023-08-06T07:52:44;3.25;;;2.13;;
35074;SDS011;21260;34.984;32.490;2023-08-06T07:55:10;3.38;;;2.20;;
35074;SDS011;21260;34.984;32.490;2023-08-06T07:57:37;4.05;;;2.50;;
35074;SDS011;21260;34.984;32.490;2023-08-06T08:00:03;4.20;;;2.50;;
35074;SDS011;21260;34.984;32.490;2023-08-06T08:02:31;6.70;;;2.42;;
35074;SDS011;21260;34.984;32.490;2023-08-06T08:04:57;4.97;;;2.50;;
35074;SDS011;21260;34.984;32.490;2023-08-06T08:07:23;3.40;;;2.20;;
35074;SDS011;21260;34.984;32.490;2023-08-06T08:09:49;4.38;;;2.40;;
35074;SDS011;21260;34.984;32.490;2023-08-06T08:12:16;3.15;;;2.25;;
35074;SDS011;21260;34.984;32.490;2023-08-06T08:14:42;3.75;;;2.13;;
35074;SDS011;21260;34.984;32.490;2023-08-06T08:17:10;4.13;;;2.33;;
35074;SDS011;21260;34.984;32.490;2023-08-06T08:19:37;3.47;;;2.30;;
35074;SDS011;21260;34.984;32.490;2023-08-06T08:22:03;3.30;;;2.22;;
35074;SDS011;21260;34.984;32.490;2023-08-06T08:24:29;3.13;;;1.98;;
35074;SDS011;21260;34.984;32.490;2023-08-06T08:26:56;5.13;;;2.55;;
35074;SDS011;21260;34.984;32.490;2023-08-06T08:29:25;4.07;;;2.45;;
35074;SDS011;21260;34.984;32.490;2023-08-06T08:31:51;6.40;;;2.50;;
35074;SDS011;21260;34.984;32.490;2023-08-06T08:34:20;3.10;;;2.28;;
35074;SDS011;21260;34.984;32.490;2023-08-06T08:36:46;4.22;;;2.50;;
35074;SDS011;21260;34.984;32.490;2023-08-06T08:39:13;4.95;;;2.50;;
35074;SDS011;21260;34.984;32.490;2023-08-06T08:41:39;4.97;;;2.40;;
35074;SDS011;21260;34.984;32.490;2023-08-06T08:44:10;5.17;;;2.40;;
35074;SDS011;21260;34.984;32.490;2023-08-06T08:46:39;4.43;;;2.67;;
35074;SDS011;21260;34.984;32.490;2023-08-06T08:49:07;4.25;;;2.40;;
35074;SDS011;21260;34.984;32.490;2023-08-06T08:51:34;3.08;;;2.25;;
35074;SDS011;21260;34.984;32.490;2023-08-06T08:54:02;4.65;;;2.53;;
35074;SDS011;21260;34.984;32.490;2023-08-06T08:56:29;6.60;;;2.50;;
35074;SDS011;21260;34.984;32.490;2023-08-06T08:58:57;4.30;;;2.33;;
35074;SDS011;21260;34.984;32.490;2023-08-06T09:01:24;6.38;;;2.42;;
35074;SDS011;21260;34.984;32.490;2023-08-06T09:03:51;4.05;;;2.40;;
35074;SDS011;21260;34.984;32.490;2023-08-06T09:06:20;3.63;;;2.20;;
35074;SDS011;21260;34.984;32.490;2023-08-06T09:09:01;5.53;;;2.55;;
35074;SDS011;21260;34.984;32.490;2023-08-06T09:11:45;4.43;;;2.60;;
35074;SDS011;21260;34.984;32.490;2023-08-06T09:14:14;6.70;;;2.45;;
35074;SDS011;21260;34.984;32.490;2023-08-06T09:16:42;4.45;;;2.30;;
35074;SDS011;21260;34.984;32.490;2023-08-06T09:21:42;2.77;;;2.10;;
35074;SDS011;21260;34.984;32.490;2023-08-06T09:24:13;2.78;;;2.40;;
35074;SDS011;21260;34.984;32.490;2023-08-06T09:26:41;4.53;;;2.40;;
35074;SDS011;21260;34.984;32.490;2023-08-06T09:29:10;4.32;;;2.60;;
35074;SDS011;21260;34.984;32.490;2023-08-06T09:31:43;7.88;;;2.60;;
35074;SDS011;21260;34.984;32.490;2023-08-06T09:34:16;4.53;;;2.47;;
35074;SDS011;21260;34.984;32.490;2023-08-06T09:36:46;4.45;;;2.60;;
35074;SDS011;21260;34.984;32.490;2023-08-06T09:39:26;4.05;;;2.60;;
35074;SDS011;21260;34.984;32.490;2023-08-06T09:42:01;3.50;;;2.67;;
35074;SDS011;21260;34.984;32.490;2023-08-06T09:44:30;3.70;;;2.47;;
35074;SDS011;21260;34.984;32.490;2023-08-06T09:46:59;4.70;;;2.33;;
35074;SDS011;21260;34.984;32.490;2023-08-06T09:49:40;3.90;;;2.60;;
35074;SDS011;21260;34.984;32.490;2023-08-06T09:52:09;5.43;;;2.50;;
35074;SDS011;21260;34.984;32.490;2023-08-06T09:54:38;6.60;;;2.40;;
35074;SDS011;21260;34.984;32.490;2023-08-06T09:57:05;4.15;;;2.45;;
35074;SDS011;21260;34.984;32.490;2023-08-06T09:59:32;5.82;;;2.42;;
35074;SDS011;21260;34.984;32.490;2023-08-06T10:01:59;7.72;;;2.60;;
35074;SDS011;21260;34.984;32.490;2023-08-06T10:04:26;5.60;;;2.58;;
35074;SDS011;21260;34.984;32.490;2023-08-06T10:06:54;6.90;;;2.60;;
35074;SDS011;21260;34.984;32.490;2023-08-06T10:09:21;4.68;;;2.65;;
35074;SDS011;21260;34.984;32.490;2023-08-06T10:11:50;5.28;;;2.60;;
35074;SDS011;21260;34.984;32.490;2023-08-06T10:14:25;5.03;;;2.90;;
35074;SDS011;21260;34.984;32.490;2023-08-06T10:17:00;5.78;;;2.50;;
35074;SDS011;21260;34.984;32.490;2023-08-06T10:19:27;7.45;;;2.30;;
35074;SDS011;21260;34.984;32.490;2023-08-06T10:25:00;4.15;;;2.55;;
35074;SDS011;21260;34.984;32.490;2023-08-06T10:27:32;4.65;;;2.35;;
35074;SDS011;21260;34.984;32.490;2023-08-06T10:30:41;2.97;;;2.38;;
35074;SDS011;21260;34.984;32.490;2023-08-06T10:33:11;4.93;;;2.38;;
35074;SDS011;21260;34.984;32.490;2023-08-06T10:38:09;4.38;;;2.60;;
35074;SDS011;21260;34.984;32.490;2023-08-06T10:43:30;5.35;;;2.70;;
35074;SDS011;21260;34.984;32.490;2023-08-06T10:46:13;5.28;;;2.67;;
35074;SDS011;21260;34.984;32.490;2023-08-06T10:48:53;5.63;;;2.55;;
35074;SDS011;21260;34.984;32.490;2023-08-06T10:51:20;4.40;;;2.50;;
35074;SDS011;21260;34.984;32.490;2023-08-06T10:53:47;5.82;;;2.53;;
35074;SDS011;21260;34.984;32.490;2023-08-06T10:56:16;3.80;;;2.20;;
35074;SDS011;21260;34.984;32.490;2023-08-06T10:58:44;5.70;;;2.70;;
35074;SDS011;21260;34.984;32.490;2023-08-06T11:01:12;4.00;;;2.67;;
35074;SDS011;21260;34.984;32.490;2023-08-06T11:03:40;5.30;;;2.83;;
35074;SDS011;21260;34.984;32.490;2023-08-06T11:06:10;5.53;;;2.72;;
35074;SDS011;21260;34.984;32.490;2023-08-06T11:08:53;4.65;;;2.70;;
35074;SDS011;21260;34.984;32.490;2023-08-06T11:11:20;4.35;;;2.40;;
35074;SDS011;21260;34.984;32.490;2023-08-06T11:13:49;4.40;;;2.70;;
35074;SDS011;21260;34.984;32.490;2023-08-06T11:16:17;3.80;;;2.70;;
35074;SDS011;21260;34.984;32.490;2023-08-06T11:18:49;5.65;;;2.80;;
35074;SDS011;21260;34.984;32.490;2023-08-06T11:21:19;6.00;;;2.90;;
35074;SDS011;21260;34.984;32.490;2023-08-06T11:23:47;4.13;;;2.58;;
35074;SDS011;21260;34.984;32.490;2023-08-06T11:26:18;6.10;;;2.70;;
35074;SDS011;21260;34.984;32.490;2023-08-06T11:28:45;4.57;;;2.78;;
35074;SDS011;21260;34.984;32.490;2023-08-06T11:31:21;5.50;;;2.90;;
35074;SDS011;21260;34.984;32.490;2023-08-06T11:33:50;4.20;;;2.72;;
35074;SDS011;21260;34.984;32.490;2023-08-06T11:36:33;3.40;;;2.40;;
35074;SDS011;21260;34.984;32.490;2023-08-06T11:39:05;4.63;;;2.72;;
35074;SDS011;21260;34.984;32.490;2023-08-06T11:41:32;4.47;;;2.50;;
35074;SDS011;21260;34.984;32.490;2023-08-06T11:43:59;4.63;;;2.72;;
35074;SDS011;21260;34.984;32.490;2023-08-06T11:46:26;3.55;;;2.55;;
35074;SDS011;21260;34.984;32.490;2023-08-06T11:48:52;5.43;;;2.92;;
35074;SDS011;21260;34.984;32.490;2023-08-06T11:51:24;4.97;;;2.70;;
35074;SDS011;21260;34.984;32.490;2023-08-06T11:53:53;4.70;;;2.67;;
35074;SDS011;21260;34.984;32.490;2023-08-06T11:56:26;5.07;;;2.85;;
35074;SDS011;21260;34.984;32.490;2023-08-06T11:58:54;3.35;;;2.45;;
35074;SDS011;21260;34.984;32.490;2023-08-06T12:01:20;6.75;;;2.50;;
35074;SDS011;21260;34.984;32.490;2023-08-06T12:03:47;4.65;;;2.50;;
35074;SDS011;21260;34.984;32.490;2023-08-06T12:06:13;4.97;;;2.50;;
35074;SDS011;21260;34.984;32.490;2023-08-06T12:08:39;4.65;;;2.80;;
35074;SDS011;21260;34.984;32.490;2023-08-06T12:11:07;4.22;;;2.72;;
35074;SDS011;21260;34.984;32.490;2023-08-06T12:13:34;5.30;;;2.80;;
35074;SDS011;21260;34.984;32.490;2023-08-06T12:16:00;6.10;;;3.20;;
35074;SDS011;21260;34.984;32.490;2023-08-06T12:18:26;4.03;;;2.70;;
35074;SDS011;21260;34.984;32.490;2023-08-06T12:20:52;5.00;;;2.83;;
35074;SDS011;21260;34.984;32.490;2023-08-06T12:23:19;4.67;;;2.70;;
35074;SDS011;21260;34.984;32.490;2023-08-06T12:25:45;4.40;;;2.80;;
35074;SDS011;21260;34.984;32.490;2023-08-06T12:28:11;4.37;;;2.67;;
35074;SDS011;21260;34.984;32.490;2023-08-06T12:30:38;4.07;;;2.75;;
35074;SDS011;21260;34.984;32.490;2023-08-06T12:33:08;5.13;;;2.67;;
35074;SDS011;21260;34.984;32.490;2023-08-06T12:35:34;3.50;;;2.73;;
35074;SDS011;21260;34.984;32.490;2023-08-06T12:38:03;5.27;;;2.70;;
35074;SDS011;21260;34.984;32.490;2023-08-06T12:40:30;4.43;;;2.65;;
35074;SDS011;21260;34.984;32.490;2023-08-06T12:42:56;4.63;;;2.42;;
35074;SDS011;21260;34.984;32.490;2023-08-06T12:45:24;3.22;;;2.50;;
35074;SDS011;21260;34.984;32.490;2023-08-06T12:47:50;3.80;;;2.50;;
35074;SDS011;21260;34.984;32.490;2023-08-06T12:50:16;4.68;;;2.70;;
35074;SDS011;21260;34.984;32.490;2023-08-06T12:52:43;3.72;;;2.60;;
35074;SDS011;21260;34.984;32.490;2023-08-06T12:55:09;4.20;;;2.50;;
35074;SDS011;21260;34.984;32.490;2023-08-06T12:57:35;3.55;;;2.70;;
35074;SDS011;21260;34.984;32.490;2023-08-06T13:00:01;3.85;;;2.63;;
35074;SDS011;21260;34.984;32.490;2023-08-06T13:02:28;4.05;;;2.75;;
35074;SDS011;21260;34.984;32.490;2023-08-06T13:04:55;3.70;;;2.40;;
35074;SDS011;21260;34.984;32.490;2023-08-06T13:07:22;4.68;;;2.42;;
35074;SDS011;21260;34.984;32.490;2023-08-06T13:09:48;3.67;;;2.63;;
35074;SDS011;21260;34.984;32.490;2023-08-06T13:12:14;4.10;;;2.53;;
35074;SDS011;21260;34.984;32.490;2023-08-06T13:14:40;4.25;;;2.50;;
35074;SDS011;21260;34.984;32.490;2023-08-06T13:17:06;4.30;;;2.60;;
35074;SDS011;21260;34.984;32.490;2023-08-06T13:19:35;3.63;;;2.33;;
35074;SDS011;21260;34.984;32.490;2023-08-06T13:22:02;4.63;;;2.40;;
35074;SDS011;21260;34.984;32.490;2023-08-06T13:24:31;3.43;;;2.30;;
35074;SDS011;21260;34.984;32.490;2023-08-06T13:26:58;2.65;;;2.22;;
35074;SDS011;21260;34.984;32.490;2023-08-06T13:29:25;4.05;;;2.28;;
35074;SDS011;21260;34.984;32.490;2023-08-06T13:31:52;3.20;;;2.37;;
35074;SDS011;21260;34.984;32.490;2023-08-06T13:34:19;3.10;;;2.30;;
35074;SDS011;21260;34.984;32.490;2023-08-06T13:36:45;4.18;;;2.20;;
35074;SDS011;21260;34.984;32.490;2023-08-06T13:39:11;6.60;;;2.40;;
35074;SDS011;21260;34.984;32.490;2023-08-06T13:41:41;4.63;;;2.65;;
35074;SDS011;21260;34.984;32.490;2023-08-06T13:44:07;2.75;;;2.10;;
35074;SDS011;21260;34.984;32.490;2023-08-06T13:46:36;3.88;;;2.30;;
35074;SDS011;21260;34.984;32.490;2023-08-06T13:49:02;3.80;;;2.30;;
35074;SDS011;21260;34.984;32.490;2023-08-06T13:51:29;3.20;;;2.40;;
35074;SDS011;21260;34.984;32.490;2023-08-06T13:53:55;3.65;;;2.42;;
35074;SDS011;21260;34.984;32.490;2023-08-06T13:56:22;3.72;;;2.38;;
35074;SDS011;21260;34.984;32.490;2023-08-06T13:58:48;3.80;;;2.22;;
35074;SDS011;21260;34.984;32.490;2023-08-06T14:01:16;6.23;;;2.43;;
35074;SDS011;21260;34.984;32.490;2023-08-06T14:03:44;4.68;;;2.20;;
35074;SDS011;21260;34.984;32.490;2023-08-06T14:06:10;3.60;;;2.00;;
35074;SDS011;21260;34.984;32.490;2023-08-06T14:08:36;2.83;;;2.00;;
35074;SDS011;21260;34.984;32.490;2023-08-06T14:11:03;4.20;;;2.00;;
35074;SDS011;21260;34.984;32.490;2023-08-06T14:13:31;2.63;;;1.80;;
35074;SDS011;21260;34.984;32.490;2023-08-06T14:15:57;2.50;;;1.70;;
35074;SDS011;21260;34.984;32.490;2023-08-06T14:18:23;3.80;;;2.10;;
35074;SDS011;21260;34.984;32.490;2023-08-06T14:20:50;2.67;;;2.00;;
35074;SDS011;21260;34.984;32.490;2023-08-06T14:23:17;5.38;;;2.20;;
35074;SDS011;21260;34.984;32.490;2023-08-06T14:25:43;3.35;;;2.10;;
35074;SDS011;21260;34.984;32.490;2023-08-06T14:28:10;5.20;;;2.08;;
35074;SDS011;21260;34.984;32.490;2023-08-06T14:30:36;3.05;;;2.05;;
35074;SDS011;21260;34.984;32.490;2023-08-06T14:33:02;3.58;;;2.00;;
35074;SDS011;21260;34.984;32.490;2023-08-06T14:35:29;4.60;;;2.13;;
35074;SDS011;21260;34.984;32.490;2023-08-06T14:37:55;5.57;;;1.83;;
35074;SDS011;21260;34.984;32.490;2023-08-06T14:40:21;3.33;;;1.70;;
35074;SDS011;21260;34.984;32.490;2023-08-06T14:42:47;3.67;;;1.67;;
35074;SDS011;21260;34.984;32.490;2023-08-06T14:45:14;3.10;;;1.80;;
35074;SDS011;21260;34.984;32.490;2023-08-06T14:47:40;2.70;;;1.67;;
35074;SDS011;21260;34.984;32.490;2023-08-06T14:50:07;3.78;;;1.92;;